createdAt,value
2023-03-23T15:58:43.145Z,96528.28
2023-03-23T15:59:45.830Z,96527.53
2023-03-23T16:00:49.553Z,96519.75
2023-03-23T16:01:51.286Z,96521.34
2023-03-23T16:03:05.057Z,96516.69
2023-03-23T16:04:11.951Z,96524.44
2023-03-23T16:05:13.864Z,96528.31
2023-03-23T16:06:23.917Z,96524.44
2023-03-23T16:07:27.302Z,96526.00
2023-03-23T16:08:29.302Z,96524.44
2023-03-23T16:09:30.996Z,96527.91
2023-03-23T16:10:32.563Z,96527.16
2023-03-23T16:11:34.518Z,96534.53
2023-03-23T16:12:36.027Z,96530.66
2023-03-23T16:13:38.057Z,96532.59
2023-03-23T16:14:41.068Z,96535.28
2023-03-23T16:15:42.977Z,96538.00
2023-03-23T16:16:50.495Z,96536.06
2023-03-23T16:17:52.697Z,96532.59
2023-03-23T16:18:54.915Z,96536.84
2023-03-23T16:19:56.523Z,96536.06
2023-03-23T16:20:58.142Z,96543.81
2023-03-23T16:21:59.724Z,96544.56
2023-03-23T16:23:01.371Z,96544.19
2023-03-23T16:24:03.573Z,96550.00
2023-03-23T16:25:05.625Z,96547.22
2023-03-23T16:26:07.273Z,96549.13
2023-03-23T16:27:11.127Z,96553.03
2023-03-23T16:28:14.129Z,96548.38
2023-03-23T16:29:33.752Z,96558.47
2023-03-23T16:30:40.288Z,96548.38
2023-03-23T16:31:41.980Z,96553.00
2023-03-23T16:32:44.537Z,96556.50
2023-03-23T16:33:46.140Z,96550.66
2023-03-23T16:34:47.676Z,96552.97
2023-03-23T16:35:49.234Z,96557.59
2023-03-23T16:36:50.815Z,96555.28
2023-03-23T16:38:07.307Z,96563.78
2023-03-23T16:39:12.375Z,96555.22
2023-03-23T16:40:15.558Z,96554.41
2023-03-23T16:41:17.471Z,96553.22
2023-03-23T16:42:19.076Z,96559.78
2023-03-23T16:43:20.899Z,96556.31
2023-03-23T16:44:22.531Z,96567.13
2023-03-23T16:45:24.328Z,96554.72
2023-03-23T16:46:25.987Z,96562.06
2023-03-23T16:47:27.636Z,96553.91
2023-03-23T16:48:29.364Z,96556.94
2023-03-23T16:49:31.087Z,96561.56
2023-03-23T16:50:33.819Z,96560.72
2023-03-23T16:51:35.842Z,96558.75
2023-03-23T16:52:46.342Z,96561.03
2023-03-23T16:53:49.322Z,96557.53
2023-03-23T16:54:50.968Z,96556.72
2023-03-23T16:55:52.950Z,96560.16
2023-03-23T16:56:54.581Z,96556.31
2023-03-23T16:58:01.059Z,96558.25
2023-03-23T16:59:10.851Z,96555.47
2023-03-23T17:00:16.149Z,96555.03
2023-03-23T17:01:17.765Z,96554.25
2023-03-23T17:02:19.369Z,96560.75
2023-03-23T17:03:22.485Z,96562.25
2023-03-23T17:04:24.151Z,96562.19
2023-03-23T17:05:28.373Z,96567.56
2023-03-23T17:06:29.965Z,96565.22
2023-03-23T17:07:31.546Z,96563.63
2023-03-23T17:08:33.577Z,96562.81
2023-03-23T17:09:35.328Z,96569.78
2023-03-23T17:10:39.306Z,96568.16
2023-03-23T17:11:40.839Z,96571.97
2023-03-23T17:12:43.328Z,96569.25
2023-03-23T17:13:44.899Z,96578.16
2023-03-23T17:14:46.776Z,96574.69
2023-03-23T17:15:53.221Z,96571.22
2023-03-23T17:16:55.465Z,96579.72
2023-03-23T17:17:57.073Z,96583.19
2023-03-23T17:18:58.766Z,96577.41
2023-03-23T17:20:00.376Z,96580.94
2023-03-23T17:21:01.888Z,96580.50
2023-03-23T17:22:03.960Z,96587.06
2023-03-23T17:23:05.922Z,96591.34
2023-03-23T17:24:07.876Z,96583.66
2023-03-23T17:25:09.914Z,96599.53
2023-03-23T17:26:11.541Z,96588.28
2023-03-23T17:27:17.749Z,96590.25
2023-03-23T17:28:21.019Z,96595.72
2023-03-23T17:29:23.157Z,96595.72
2023-03-23T17:30:24.706Z,96607.69
2023-03-23T17:31:26.474Z,96599.91
2023-03-23T17:32:28.127Z,96598.34
2023-03-23T17:33:29.694Z,96602.28
2023-03-23T17:34:31.404Z,96604.66
2023-03-23T17:35:32.991Z,96607.00
2023-03-23T17:36:34.598Z,96606.22
2023-03-23T17:37:37.908Z,96612.84
2023-03-23T17:38:39.478Z,96613.22
2023-03-23T17:39:42.705Z,96615.47
2023-03-23T17:40:45.323Z,96625.13
2023-03-23T17:41:46.937Z,96623.22
2023-03-23T17:42:48.520Z,96621.69
2023-03-23T17:43:50.142Z,96629.34
2023-03-23T17:44:51.702Z,96625.81
2023-03-23T17:45:53.837Z,96635.47
2023-03-23T17:47:00.166Z,96630.06
2023-03-23T17:48:01.954Z,96626.22
2023-03-23T17:49:04.164Z,96625.41
2023-03-23T17:50:11.231Z,96633.91
2023-03-23T17:51:14.451Z,96630.03
2023-03-23T17:52:16.175Z,96635.84
2023-03-23T17:53:18.592Z,96632.31
2023-03-23T17:54:20.198Z,96636.84
2023-03-23T17:55:21.883Z,96629.88
2023-03-23T17:56:23.631Z,96636.41
2023-03-23T17:57:25.270Z,96638.38
2023-03-23T17:58:27.078Z,96641.44
2023-03-23T17:59:29.211Z,96650.00
2023-03-23T18:00:31.031Z,96645.31
2023-03-23T18:01:32.756Z,96648.44
2023-03-23T18:02:38.520Z,96643.03
2023-03-23T18:03:40.131Z,96643.66
2023-03-23T18:04:42.633Z,96644.28
2023-03-23T18:05:44.491Z,96642.66
2023-03-23T18:06:46.654Z,96646.53
2023-03-23T18:07:48.260Z,96650.34
2023-03-23T18:08:49.795Z,96645.56
2023-03-23T18:09:51.383Z,96654.69
2023-03-23T18:10:56.143Z,96656.56
2023-03-23T18:11:57.844Z,96646.91
2023-03-23T18:12:59.415Z,96654.56
2023-03-23T18:14:01.221Z,96660.72
2023-03-23T18:15:02.823Z,96659.94
2023-03-23T18:16:05.520Z,96659.97
2023-03-23T18:17:07.424Z,96663.91
2023-03-23T18:18:10.255Z,96671.59
2023-03-23T18:19:12.030Z,96664.97
2023-03-23T18:20:14.169Z,96667.69
2023-03-23T18:21:16.588Z,96661.53
2023-03-23T18:22:18.282Z,96662.72
2023-03-23T18:23:19.876Z,96668.56
2023-03-23T18:24:21.526Z,96674.72
2023-03-23T18:25:23.480Z,96672.38
2023-03-23T18:26:25.059Z,96672.34
2023-03-23T18:27:27.158Z,96679.19
2023-03-23T18:28:29.348Z,96677.22
2023-03-23T18:29:31.021Z,96672.03
2023-03-23T18:30:34.367Z,96681.97
2023-03-23T18:31:40.126Z,96679.13
2023-03-23T18:32:42.919Z,96680.28
2023-03-23T18:33:47.111Z,96690.97
2023-03-23T18:34:48.846Z,96690.06
2023-03-23T18:35:57.018Z,96692.03
2023-03-23T18:36:58.694Z,96697.03
2023-03-23T18:38:00.437Z,96700.03
2023-03-23T18:39:02.408Z,96700.81
2023-03-23T18:40:05.519Z,96706.47
2023-03-23T18:41:10.856Z,96704.78
2023-03-23T18:42:12.512Z,96705.78
2023-03-23T18:43:14.190Z,96705.28
2023-03-23T18:44:15.831Z,96709.88
2023-03-23T18:45:17.584Z,96712.28
2023-03-23T18:46:19.304Z,96710.88
2023-03-23T18:47:21.515Z,96719.34
2023-03-23T18:48:24.194Z,96711.91
2023-03-23T18:49:26.360Z,96713.03
2023-03-23T18:50:27.924Z,96712.88
2023-03-23T18:51:30.950Z,96709.63
2023-03-23T18:52:32.923Z,96714.81
2023-03-23T18:53:34.744Z,96717.63
2023-03-23T18:54:38.295Z,96725.38
2023-03-23T18:55:39.895Z,96717.03
2023-03-23T18:56:41.596Z,96717.31
2023-03-23T18:57:43.807Z,96717.44
2023-03-23T18:58:46.342Z,96719.13
2023-03-23T18:59:48.223Z,96720.38
2023-03-23T19:00:49.976Z,96727.06
2023-03-23T19:01:52.114Z,96727.84
2023-03-23T19:02:53.857Z,96730.63
2023-03-23T19:03:55.492Z,96734.94
2023-03-23T19:04:57.169Z,96732.28
2023-03-23T19:06:00.367Z,96728.88
2023-03-23T19:07:03.434Z,96735.13
2023-03-23T19:08:06.446Z,96732.84
2023-03-23T19:09:07.976Z,96729.44
2023-03-23T19:10:09.752Z,96732.56
2023-03-23T19:11:11.579Z,96726.41
2023-03-23T19:12:13.856Z,96739.09
2023-03-23T19:13:17.205Z,96737.81
2023-03-23T19:14:19.436Z,96738.72
2023-03-23T19:15:21.063Z,96734.31
2023-03-23T19:16:22.649Z,96741.91
2023-03-23T19:17:25.206Z,96743.38
2023-03-23T19:18:26.992Z,96734.97
2023-03-23T19:19:28.720Z,96739.28
2023-03-23T19:21:06.577Z,96741.28
2023-03-23T19:22:55.202Z,96746.88
2023-03-23T19:23:57.187Z,96742.25
2023-03-23T19:24:58.781Z,96750.78
2023-03-23T19:26:00.628Z,96747.72
2023-03-23T19:27:02.547Z,96750.03
2023-03-23T19:30:15.454Z,96756.16
2023-03-23T19:31:18.942Z,96745.38
2023-03-23T19:32:20.948Z,96756.59
2023-03-23T19:33:23.394Z,96753.47
2023-03-23T19:34:27.541Z,96756.59
2023-03-23T19:35:29.895Z,96761.63
2023-03-23T19:36:32.051Z,96757.88
2023-03-23T19:37:34.830Z,96760.19
2023-03-23T19:38:36.937Z,96765.53
2023-03-23T19:39:41.750Z,96760.84
2023-03-23T19:40:58.022Z,96761.00
2023-03-23T19:41:59.824Z,96765.38
2023-03-23T19:43:01.413Z,96764.22
2023-03-23T19:44:04.026Z,96765.47
2023-03-23T19:45:06.708Z,96763.38
2023-03-23T19:46:08.672Z,96766.19
2023-03-23T19:47:10.681Z,96765.25
2023-03-23T19:48:12.397Z,96772.91
2023-03-23T19:49:14.708Z,96769.16
2023-03-23T19:50:16.791Z,96775.16
2023-03-23T19:51:20.559Z,96772.13
2023-03-23T19:52:22.674Z,96774.09
2023-03-23T19:53:26.562Z,96784.94
2023-03-23T19:54:28.495Z,96783.41
2023-03-23T19:55:30.090Z,96783.13
2023-03-23T19:56:32.597Z,96776.78
2023-03-23T19:57:35.198Z,96779.56
2023-03-23T19:58:36.818Z,96787.56
2023-03-23T19:59:39.090Z,96785.66
2023-03-23T20:00:41.505Z,96782.63
2023-03-23T20:01:44.371Z,96784.59
2023-03-23T20:02:45.991Z,96786.25
2023-03-23T20:03:48.276Z,96787.81
2023-03-23T20:04:49.949Z,96794.06
2023-03-23T20:05:51.629Z,96793.97
2023-03-23T20:06:55.366Z,96802.31
2023-03-23T20:07:58.213Z,96801.59
2023-03-23T20:09:00.728Z,96805.41
2023-03-23T20:10:03.117Z,96801.88
2023-03-23T20:11:06.464Z,96806.56
2023-03-23T20:12:08.058Z,96811.06
2023-03-23T20:13:11.717Z,96809.09
2023-03-23T20:14:13.328Z,96818.72
2023-03-23T20:15:15.440Z,96815.31
2023-03-23T20:16:18.087Z,96815.06
2023-03-23T20:17:19.704Z,96822.47
2023-03-23T20:18:21.575Z,96820.19
2023-03-23T20:19:23.588Z,96820.28
2023-03-23T20:20:26.024Z,96823.09
2023-03-23T20:21:28.255Z,96822.38
2023-03-23T20:22:29.816Z,96825.53
2023-03-23T20:23:32.215Z,96822.13
2023-03-23T20:24:33.984Z,96829.84
2023-03-23T20:25:35.789Z,96834.47
2023-03-23T20:26:40.637Z,96832.22
2023-03-23T20:27:43.672Z,96831.50
2023-03-23T20:28:45.837Z,96835.94
2023-03-23T20:29:48.231Z,96836.34
2023-03-23T20:31:16.912Z,96834.78
2023-03-23T20:32:22.001Z,96837.41
2023-03-23T20:33:23.555Z,96836.19
2023-03-23T20:34:31.628Z,96832.28
2023-03-23T20:35:33.260Z,96838.00
2023-03-23T20:36:40.268Z,96839.13
2023-03-23T20:37:42.196Z,96839.84
2023-03-23T20:38:44.736Z,96838.72
2023-03-23T20:39:48.660Z,96841.75
2023-03-23T20:40:51.260Z,96839.84
2023-03-23T20:41:54.697Z,96844.88
2023-03-23T20:42:57.877Z,96841.41
2023-03-23T20:43:59.833Z,96842.88
2023-03-23T20:45:01.981Z,96842.19
2023-03-23T20:46:04.669Z,96839.41
2023-03-23T20:47:07.498Z,96842.81
2023-03-23T20:48:09.665Z,96845.50
2023-03-23T20:49:11.748Z,96837.41
2023-03-23T20:50:13.554Z,96842.09
2023-03-23T20:51:15.692Z,96843.50
2023-03-23T20:52:17.227Z,96842.84
2023-03-23T20:53:18.834Z,96840.78
2023-03-23T20:54:22.102Z,96842.44
2023-03-23T20:55:24.167Z,96840.31
2023-03-23T20:56:26.159Z,96840.84
2023-03-23T20:57:28.795Z,96839.97
2023-03-23T20:58:30.419Z,96847.59
2023-03-23T20:59:31.995Z,96843.16
2023-03-23T21:00:33.545Z,96840.03
2023-03-23T21:01:35.582Z,96833.06
2023-03-23T21:02:37.188Z,96837.34
2023-03-23T21:03:40.982Z,96846.44
2023-03-23T21:04:45.279Z,96842.44
2023-03-23T21:05:47.324Z,96850.06
2023-03-23T21:06:49.559Z,96845.47
2023-03-23T21:07:51.120Z,96845.28
2023-03-23T21:08:52.962Z,96845.78
2023-03-23T21:09:54.589Z,96844.91
2023-03-23T21:10:57.384Z,96844.34
2023-03-23T21:11:59.344Z,96848.50
2023-03-23T21:13:00.871Z,96838.88
2023-03-23T21:14:04.050Z,96847.63
2023-03-23T21:15:06.388Z,96847.63
2023-03-23T21:16:08.363Z,96852.91
2023-03-23T21:17:10.036Z,96850.22
2023-03-23T21:18:12.292Z,96847.69
2023-03-23T21:19:14.320Z,96843.34
2023-03-23T21:20:16.031Z,96853.53
2023-03-23T21:21:18.359Z,96853.53
2023-03-23T21:22:20.248Z,96849.72
2023-03-23T21:23:21.830Z,96847.03
2023-03-23T21:24:29.030Z,96845.22
2023-03-23T21:25:34.236Z,96855.53
2023-03-23T21:26:38.625Z,96844.34
2023-03-23T21:27:40.169Z,96846.09
2023-03-23T21:28:42.429Z,96837.41
2023-03-23T21:29:44.936Z,96852.41
2023-03-23T21:30:48.366Z,96840.31
2023-03-23T21:32:01.139Z,96844.09
2023-03-23T21:33:08.991Z,96841.88
2023-03-23T21:34:10.754Z,96836.50
2023-03-23T21:35:12.394Z,96842.09
2023-03-23T21:36:13.981Z,96843.88
2023-03-23T21:37:16.073Z,96846.94
2023-03-23T21:38:19.861Z,96844.00
2023-03-23T21:39:22.444Z,96843.56
2023-03-23T21:40:24.476Z,96840.97
2023-03-23T21:41:27.017Z,96854.63
2023-03-23T21:42:31.558Z,96854.41
2023-03-23T21:43:33.202Z,96846.13
2023-03-23T21:44:35.402Z,96849.69
2023-03-23T21:45:38.217Z,96857.09
2023-03-23T21:46:40.675Z,96851.72
2023-03-23T21:47:42.243Z,96844.53
2023-03-23T21:48:51.752Z,96850.78
2023-03-23T21:49:56.587Z,96844.75
2023-03-23T21:51:05.222Z,96845.16
2023-03-23T21:52:07.030Z,96849.88
2023-03-23T21:53:12.712Z,96853.31
2023-03-23T21:54:15.038Z,96858.59
2023-03-23T21:55:16.894Z,96851.91
2023-03-23T21:56:18.932Z,96853.38
2023-03-23T21:57:20.623Z,96852.19
2023-03-23T21:58:27.350Z,96856.88
2023-03-23T21:59:29.020Z,96854.31
2023-03-23T22:00:30.579Z,96856.66
2023-03-23T22:01:32.155Z,96853.75
2023-03-23T22:02:33.981Z,96862.38
2023-03-23T22:03:36.565Z,96857.09
2023-03-23T22:04:38.166Z,96851.31
2023-03-23T22:05:40.548Z,96859.78
2023-03-23T22:06:42.446Z,96865.03
2023-03-23T22:07:44.104Z,96857.97
2023-03-23T22:08:46.833Z,96860.75
2023-03-23T22:09:48.389Z,96863.97
2023-03-23T22:11:00.405Z,96869.09
2023-03-23T22:12:03.845Z,96868.75
2023-03-23T22:13:05.809Z,96863.13
2023-03-23T22:14:07.696Z,96864.56
2023-03-23T22:15:13.745Z,96859.47
2023-03-23T22:16:20.045Z,96871.38
2023-03-23T22:17:21.816Z,96863.69
2023-03-23T22:18:23.505Z,96866.94
2023-03-23T22:19:25.113Z,96867.19
2023-03-23T22:20:26.805Z,96863.66
2023-03-23T22:21:29.069Z,96868.28
2023-03-23T22:22:30.700Z,96870.00
2023-03-23T22:23:32.496Z,96868.91
2023-03-23T22:24:34.058Z,96861.44
2023-03-23T22:25:37.574Z,96869.59
2023-03-23T22:26:39.495Z,96854.41
2023-03-23T22:27:42.839Z,96864.16
2023-03-23T22:28:47.015Z,96865.81
2023-03-23T22:29:48.561Z,96864.50
2023-03-23T22:30:50.425Z,96865.38
2023-03-23T22:31:52.054Z,96870.06
2023-03-23T22:32:53.645Z,96867.63
2023-03-23T22:33:57.001Z,96868.09
2023-03-23T22:34:58.536Z,96867.72
2023-03-23T22:36:06.220Z,96862.03
2023-03-23T22:37:08.329Z,96861.56
2023-03-23T22:38:09.980Z,96860.13
2023-03-23T22:39:11.558Z,96864.59
2023-03-23T22:40:13.462Z,96862.25
2023-03-23T22:41:21.278Z,96859.25
2023-03-23T22:42:22.833Z,96861.59
2023-03-23T22:43:25.162Z,96862.03
2023-03-23T22:44:27.115Z,96865.94
2023-03-23T22:45:28.995Z,96862.16
2023-03-23T22:46:30.856Z,96865.63
2023-03-23T22:47:32.497Z,96864.16
2023-03-23T22:48:34.168Z,96860.03
2023-03-23T22:49:36.002Z,96859.69
2023-03-23T22:50:37.529Z,96860.25
2023-03-23T22:51:39.661Z,96865.63
2023-03-23T22:52:41.333Z,96867.16
2023-03-23T22:53:42.948Z,96857.22
2023-03-23T22:54:44.539Z,96863.56
2023-03-23T22:55:48.466Z,96859.56
2023-03-23T22:56:50.236Z,96858.66
2023-03-23T22:57:51.823Z,96865.94
2023-03-23T22:58:54.670Z,96870.84
2023-03-23T22:59:56.333Z,96857.31
2023-03-23T23:01:07.703Z,96867.81
2023-03-23T23:02:09.407Z,96871.38
2023-03-23T23:03:11.896Z,96870.00
2023-03-23T23:04:13.641Z,96872.13
2023-03-23T23:05:15.692Z,96865.28
2023-03-23T23:06:18.289Z,96870.88
2023-03-23T23:09:35.383Z,96864.31
2023-03-23T23:10:36.962Z,96871.00
2023-03-23T23:11:39.328Z,96872.31
2023-03-23T23:12:42.470Z,96876.34
2023-03-23T23:13:44.368Z,96867.63
2023-03-23T23:14:46.009Z,96874.53
2023-03-23T23:15:51.308Z,96878.69
2023-03-23T23:16:52.974Z,96876.22
2023-03-23T23:17:54.806Z,96881.09
2023-03-23T23:18:56.475Z,96872.44
2023-03-23T23:19:59.598Z,96885.56
2023-03-23T23:21:07.982Z,96885.53
2023-03-23T23:22:18.366Z,96886.03
2023-03-23T23:23:21.677Z,96890.03
2023-03-23T23:26:38.898Z,96889.56
2023-03-23T23:27:40.610Z,96890.03
2023-03-23T23:28:43.082Z,96894.06
2023-03-23T23:29:44.938Z,96886.38
2023-03-23T23:30:47.308Z,96890.78
2023-03-23T23:31:49.054Z,96893.88
2023-03-23T23:32:52.168Z,96883.53
2023-03-23T23:33:56.099Z,96892.38
2023-03-23T23:34:57.760Z,96890.91
2023-03-23T23:35:59.537Z,96883.25
2023-03-23T23:37:01.417Z,96887.94
2023-03-23T23:38:04.409Z,96886.06
2023-03-23T23:39:06.712Z,96883.56
2023-03-23T23:40:09.339Z,96886.25
2023-03-23T23:41:11.278Z,96889.84
2023-03-23T23:42:12.860Z,96883.19
2023-03-23T23:43:16.068Z,96891.84
2023-03-23T23:44:17.778Z,96899.03
2023-03-23T23:45:19.771Z,96897.88
2023-03-23T23:46:21.644Z,96900.38
2023-03-23T23:47:23.338Z,96899.06
2023-03-23T23:48:25.016Z,96902.31
2023-03-23T23:49:28.650Z,96898.22
2023-03-23T23:50:30.293Z,96894.88
2023-03-23T23:51:33.802Z,96898.81
2023-03-23T23:52:36.836Z,96898.66
2023-03-23T23:53:38.864Z,96898.84
2023-03-23T23:54:42.544Z,96900.13
2023-03-23T23:55:44.178Z,96897.56
2023-03-23T23:56:45.975Z,96896.19
2023-03-23T23:57:48.892Z,96895.16
2023-03-23T23:58:51.056Z,96899.25
2023-03-23T23:59:52.606Z,96899.63
